TimeMST,TemperatureF,Dew PointF,Humidity,Sea Level PressureIn,VisibilityMPH,Wind Direction,Wind SpeedMPH,Gust SpeedMPH,PrecipitationIn,Events,Conditions,WindDirDegrees,DateUTC
12:53 AM,54.0,21.0,28,30.03,10.0,SW,4.6,-,N/A,,Clear,220,2012-10-19 07:53:00
1:53 AM,53.1,19.0,26,30.03,10.0,WSW,3.5,-,N/A,,Clear,240,2012-10-19 08:53:00
2:53 AM,53.1,19.0,26,30.02,10.0,Calm,Calm,-,N/A,,Clear,0,2012-10-19 09:53:00
3:53 AM,48.9,21.9,35,30.03,10.0,Calm,Calm,-,N/A,,Clear,0,2012-10-19 10:53:00
4:53 AM,51.1,19.0,28,30.02,10.0,SW,5.8,-,N/A,,Clear,220,2012-10-19 11:53:00
5:53 AM,48.9,19.9,32,30.04,10.0,Calm,Calm,-,N/A,,Clear,0,2012-10-19 12:53:00
6:53 AM,48.0,21.0,34,30.06,10.0,Calm,Calm,-,N/A,,Clear,0,2012-10-19 13:53:00
7:53 AM,55.9,18.0,23,30.07,10.0,Calm,Calm,-,N/A,,Clear,0,2012-10-19 14:53:00
8:53 AM,57.0,21.0,25,30.08,10.0,WNW,3.5,-,N/A,,Clear,300,2012-10-19 15:53:00
9:53 AM,60.1,19.9,21,30.06,10.0,NNW,4.6,-,N/A,,Clear,340,2012-10-19 16:53:00
10:53 AM,62.1,21.9,21,30.04,10.0,North,3.5,-,N/A,,Clear,350,2012-10-19 17:53:00
11:53 AM,66.9,21.9,18,29.99,10.0,Variable,3.5,-,N/A,,Clear,0,2012-10-19 18:53:00
12:53 PM,69.1,21.0,16,29.96,10.0,North,8.1,-,N/A,,Clear,360,2012-10-19 19:53:00
1:53 PM,72.0,21.9,15,29.92,10.0,ENE,3.5,-,N/A,,Clear,60,2012-10-19 20:53:00
2:53 PM,73.9,19.9,13,29.88,10.0,East,4.6,-,N/A,,Clear,90,2012-10-19 21:53:00
3:53 PM,75.0,19.9,13,29.87,10.0,NNE,4.6,-,N/A,,Clear,30,2012-10-19 22:53:00
4:53 PM,73.0,18.0,12,29.85,10.0,NNE,6.9,-,N/A,,Clear,30,2012-10-19 23:53:00
5:53 PM,66.0,23.0,20,29.87,10.0,Calm,Calm,-,N/A,,Clear,0,2012-10-20 00:53:00
6:53 PM,66.0,19.9,17,29.87,10.0,SSE,3.5,-,N/A,,Clear,160,2012-10-20 01:53:00
7:53 PM,62.1,24.1,23,29.86,10.0,SSW,4.6,-,N/A,,Clear,210,2012-10-20 02:53:00
8:53 PM,61.0,25.0,25,29.86,10.0,SSW,3.5,-,N/A,,Clear,210,2012-10-20 03:53:00
9:53 PM,57.9,24.1,27,29.87,10.0,Calm,Calm,-,N/A,,Clear,0,2012-10-20 04:53:00
10:53 PM,55.9,24.1,29,29.87,10.0,SW,3.5,-,N/A,,Clear,230,2012-10-20 05:53:00
11:53 PM,55.9,23.0,28,29.86,10.0,Calm,Calm,-,N/A,,Clear,0,2012-10-20 06:53:00